Waltham, MN

3:48 PM CDT on September 20, 2014 (GMT -0500)
Austin Municipal | Change Station
CLOSE
Current Station
Airport
Location: Austin,
Elevation: 1230 ft
Nearby Weather Stations

Elev 1230 ft 43.67 °N, 92.93 °W | Updated 12 minutes ago

Clear
Clear
75 °F
Feels Like 75 °F
N
14
Wind Variable Wind from West
Gusts 22 mph

Today
High -- | Low -- °F
--% Chance of Precip.
Yesterday
High -- | Low -- °F
Precip. -- in
6:56 AM 7:12 PM
Waning Crescent, 10% visible
Pressure 29.81 in
Visibility 10.0 miles
Clouds Clear
Dew Point 55 °F
Humidity 50%
Rainfall 1.25 in
Snow Depth Not available.
UV 4 out of 12
Pollen 2.20 out of 12
Air Quality Not available.
Flu Activity Not available.
METAR KAUM 202036Z AUTO 27012G19KT 10SM CLR 24/13 A2981 RMK AO2

More Conditions Fewer Conditions

Pressure 29.81 in
Visibility 10.0 miles
Clouds Clear
Dew Point 55 °F
Humidity 50%
Rainfall 1.25 in
Snow Depth Not available.
UV 4 out of 12
Pollen 2.20 out of 12
Air Quality Not available.
Flu Activity Not available.
METAR KAUM 202036Z AUTO 27012G19KT 10SM CLR 24/13 A2981 RMK AO2

More Conditions Fewer Conditions

10-Day Weather Forecast

Almanac

Astronomy

Sep. 20, 2014 Rise Set
Actual Time 6:56 AM CDT 7:12 PM CDT
Civil Twilight 6:27 AM CDT 7:41 PM CDT
Nautical Twilight 5:53 AM CDT 8:14 PM CDT
Astronomical Twilight 5:19 AM CDT 8:49 PM CDT
Moon 3:30 AM CDT 5:20 PM CDT
Length of Visible Light 13h 13m
Length of Day
12h 16m
Tomorrow will be 2m 58s shorter.
Waning Crescent, 10% of the Moon is Illuminated
Today
Waning Crescent
Sep 24
New
Oct 1
First Quarter
Oct 8
Full
Oct 15
Last Quarter

Today's Extremes

State Highs State Lows

Community

WunderPhotos

Upload Photos

1,754,945 photos uploaded!

WunderBlogs® & News

Nearby

Snow Depth

Station Depth Elevation
No new snow has been reported.

Earthquake Activity

City Distance Mag. Time & Date
No recent earthquake activity has been reported nearby.
Minimum magnitude displayed is 2.5.

Coastal Water Temperatures

Place Temperature
No Stations Reporting

Nearby Weather Stations